sensor_id;sensor_type;location;lat;lon;timestamp;pressure;altitude;pressure_sealevel;temperature
1532;BMP280;759;53.170;8.210;2022-11-20T00:01:32;100304.94;;;0.39
1532;BMP280;759;53.170;8.210;2022-11-20T00:03:51;100309.69;;;0.46
1532;BMP280;759;53.170;8.210;2022-11-20T00:06:17;100308.53;;;0.56
1532;BMP280;759;53.170;8.210;2022-11-20T00:08:42;100294.66;;;0.47
1532;BMP280;759;53.170;8.210;2022-11-20T00:11:12;100305.81;;;0.44
1532;BMP280;759;53.170;8.210;2022-11-20T00:13:37;100300.44;;;0.61
1532;BMP280;759;53.170;8.210;2022-11-20T00:16:04;100294.38;;;0.61
1532;BMP280;759;53.170;8.210;2022-11-20T00:18:29;100293.13;;;0.46
1532;BMP280;759;53.170;8.210;2022-11-20T00:21:00;100298.06;;;0.47
1532;BMP280;759;53.170;8.210;2022-11-20T00:23:25;100297.28;;;0.47
1532;BMP280;759;53.170;8.210;2022-11-20T00:25:50;100305.56;;;0.57
1532;BMP280;759;53.170;8.210;2022-11-20T00:28:15;100301.31;;;0.65
1532;BMP280;759;53.170;8.210;2022-11-20T00:30:40;100288.09;;;0.53
1532;BMP280;759;53.170;8.210;2022-11-20T00:33:06;100296.88;;;0.57
1532;BMP280;759;53.170;8.210;2022-11-20T00:35:31;100303.91;;;0.53
1532;BMP280;759;53.170;8.210;2022-11-20T00:37:56;100304.22;;;0.51
1532;BMP280;759;53.170;8.210;2022-11-20T00:40:21;100290.28;;;0.51
1532;BMP280;759;53.170;8.210;2022-11-20T00:42:46;100291.53;;;0.53
1532;BMP280;759;53.170;8.210;2022-11-20T00:45:11;100294.25;;;0.57
1532;BMP280;759;53.170;8.210;2022-11-20T00:47:37;100295.38;;;0.56
1532;BMP280;759;53.170;8.210;2022-11-20T00:50:02;100295.38;;;0.56
1532;BMP280;759;53.170;8.210;2022-11-20T00:52:27;100299.19;;;0.58
1532;BMP280;759;53.170;8.210;2022-11-20T00:54:52;100299.13;;;0.67
1532;BMP280;759;53.170;8.210;2022-11-20T00:57:18;100291.31;;;0.58
1532;BMP280;759;53.170;8.210;2022-11-20T00:59:43;100288.03;;;0.62
1532;BMP280;759;53.170;8.210;2022-11-20T01:02:08;100291.44;;;0.62
1532;BMP280;759;53.170;8.210;2022-11-20T01:04:33;100282.44;;;0.63
1532;BMP280;759;53.170;8.210;2022-11-20T01:06:58;100293.88;;;0.67
1532;BMP280;759;53.170;8.210;2022-11-20T01:09:23;100301.31;;;0.65
1532;BMP280;759;53.170;8.210;2022-11-20T01:11:49;100301.06;;;0.58
1532;BMP280;759;53.170;8.210;2022-11-20T01:14:15;100294.19;;;0.66
1532;BMP280;759;53.170;8.210;2022-11-20T01:16:42;100287.06;;;0.66
1532;BMP280;759;53.170;8.210;2022-11-20T01:19:10;100291.31;;;0.58
1532;BMP280;759;53.170;8.210;2022-11-20T01:21:37;100291.44;;;0.62
1532;BMP280;759;53.170;8.210;2022-11-20T01:24:03;100290.13;;;0.68
1532;BMP280;759;53.170;8.210;2022-11-20T01:26:30;100280.25;;;0.65
1532;BMP280;759;53.170;8.210;2022-11-20T01:28:55;100283.34;;;0.67
1532;BMP280;759;53.170;8.210;2022-11-20T01:33:46;100277.66;;;0.77
1532;BMP280;759;53.170;8.210;2022-11-20T01:36:12;100280.28;;;0.77
1532;BMP280;759;53.170;8.210;2022-11-20T01:38:38;100281.16;;;0.82
1532;BMP280;759;53.170;8.210;2022-11-20T01:41:04;100276.13;;;0.76
1532;BMP280;759;53.170;8.210;2022-11-20T01:43:29;100272.03;;;0.67
1532;BMP280;759;53.170;8.210;2022-11-20T01:53:48;100259.88;;;0.74
1532;BMP280;759;53.170;8.210;2022-11-20T01:56:15;100252.56;;;0.80
1532;BMP280;759;53.170;8.210;2022-11-20T01:58:42;100268.88;;;0.73
1532;BMP280;759;53.170;8.210;2022-11-20T02:01:08;100264.03;;;0.75
1532;BMP280;759;53.170;8.210;2022-11-20T02:03:34;100261.22;;;0.81
1532;BMP280;759;53.170;8.210;2022-11-20T02:08:31;100242.47;;;0.82
1532;BMP280;759;53.170;8.210;2022-11-20T02:10:57;100245.16;;;0.73
1532;BMP280;759;53.170;8.210;2022-11-20T02:13:22;100243.53;;;0.81
1532;BMP280;759;53.170;8.210;2022-11-20T02:16:08;100232.44;;;0.75
1532;BMP280;759;53.170;8.210;2022-11-20T02:18:34;100235.63;;;0.81
1532;BMP280;759;53.170;8.210;2022-11-20T02:21:01;100232.69;;;0.83
1532;BMP280;759;53.170;8.210;2022-11-20T02:23:32;100233.56;;;0.87
1532;BMP280;759;53.170;8.210;2022-11-20T02:25:58;100243.78;;;0.88
1532;BMP280;759;53.170;8.210;2022-11-20T02:28:25;100241.78;;;0.85
1532;BMP280;759;53.170;8.210;2022-11-20T02:30:51;100225.34;;;0.88
1532;BMP280;759;53.170;8.210;2022-11-20T02:33:16;100230.41;;;0.93
1532;BMP280;759;53.170;8.210;2022-11-20T02:35:43;100236.88;;;0.96
1532;BMP280;759;53.170;8.210;2022-11-20T02:38:08;100230.50;;;0.85
1532;BMP280;759;53.170;8.210;2022-11-20T02:40:33;100233.13;;;0.85
1532;BMP280;759;53.170;8.210;2022-11-20T02:42:59;100232.88;;;0.77
1532;BMP280;759;53.170;8.210;2022-11-20T02:45:24;100231.13;;;0.82
1532;BMP280;759;53.170;8.210;2022-11-20T02:47:50;100219.31;;;0.88
1532;BMP280;759;53.170;8.210;2022-11-20T02:50:15;100219.41;;;0.91
1532;BMP280;759;53.170;8.210;2022-11-20T02:52:41;100214.47;;;1.02
1532;BMP280;759;53.170;8.210;2022-11-20T02:55:06;100204.59;;;0.87
1532;BMP280;759;53.170;8.210;2022-11-20T02:57:32;100213.06;;;0.92
1532;BMP280;759;53.170;8.210;2022-11-20T02:59:57;100214.94;;;0.92
1532;BMP280;759;53.170;8.210;2022-11-20T03:02:22;100199.66;;;0.85
1532;BMP280;759;53.170;8.210;2022-11-20T03:04:47;100205.72;;;0.86
1532;BMP280;759;53.170;8.210;2022-11-20T03:07:12;100193.41;;;0.90
1532;BMP280;759;53.170;8.210;2022-11-20T03:09:38;100200.19;;;0.78
1532;BMP280;759;53.170;8.210;2022-11-20T03:12:03;100190.66;;;0.86
1532;BMP280;759;53.170;8.210;2022-11-20T03:14:28;100189.66;;;0.78
1532;BMP280;759;53.170;8.210;2022-11-20T03:16:53;100192.06;;;0.84
1532;BMP280;759;53.170;8.210;2022-11-20T03:19:19;100196.94;;;0.94
1532;BMP280;759;53.170;8.210;2022-11-20T03:21:44;100184.63;;;0.98
1532;BMP280;759;53.170;8.210;2022-11-20T03:24:09;100178.06;;;0.92
1532;BMP280;759;53.170;8.210;2022-11-20T03:26:34;100178.69;;;0.89
1532;BMP280;759;53.170;8.210;2022-11-20T03:29:02;100180.91;;;0.99
1532;BMP280;759;53.170;8.210;2022-11-20T03:31:33;100171.78;;;0.96
1532;BMP280;759;53.170;8.210;2022-11-20T03:33:59;100173.66;;;0.96
1532;BMP280;759;53.170;8.210;2022-11-20T03:36:24;100183.09;;;0.85
1532;BMP280;759;53.170;8.210;2022-11-20T03:38:50;100172.44;;;0.81
1532;BMP280;759;53.170;8.210;2022-11-20T03:41:17;100172.22;;;0.86
1532;BMP280;759;53.170;8.210;2022-11-20T03:43:46;100172.66;;;0.88
1532;BMP280;759;53.170;8.210;2022-11-20T03:46:11;100159.50;;;0.88
1532;BMP280;759;53.170;8.210;2022-11-20T03:48:36;100165.28;;;0.82
1532;BMP280;759;53.170;8.210;2022-11-20T03:51:12;100156.97;;;0.92
1532;BMP280;759;53.170;8.210;2022-11-20T03:53:38;100161.34;;;1.00
1532;BMP280;759;53.170;8.210;2022-11-20T03:56:03;100150.59;;;0.93
1532;BMP280;759;53.170;8.210;2022-11-20T03:58:29;100160.91;;;0.98
1532;BMP280;759;53.170;8.210;2022-11-20T04:00:54;100151.81;;;0.95
1532;BMP280;759;53.170;8.210;2022-11-20T04:03:19;100164.44;;;0.90
1532;BMP280;759;53.170;8.210;2022-11-20T04:05:44;100162.03;;;0.85
1532;BMP280;759;53.170;8.210;2022-11-20T04:08:10;100170.59;;;0.94
1532;BMP280;759;53.170;8.210;2022-11-20T04:10:35;100164.19;;;0.95
1532;BMP280;759;53.170;8.210;2022-11-20T04:13:00;100157.31;;;0.90
1532;BMP280;759;53.170;8.210;2022-11-20T04:15:25;100171.66;;;0.93
1532;BMP280;759;53.170;8.210;2022-11-20T04:17:50;100167.75;;;0.99
1532;BMP280;759;53.170;8.210;2022-11-20T04:20:15;100170.38;;;0.99
1532;BMP280;759;53.170;8.210;2022-11-20T04:22:41;100164.63;;;0.97
1532;BMP280;759;53.170;8.210;2022-11-20T04:25:06;100160.03;;;0.94
1532;BMP280;759;53.170;8.210;2022-11-20T04:27:31;100162.34;;;0.95
1532;BMP280;759;53.170;8.210;2022-11-20T04:29:56;100151.94;;;0.99
1532;BMP280;759;53.170;8.210;2022-11-20T04:32:22;100149.50;;;1.06
1532;BMP280;759;53.170;8.210;2022-11-20T04:34:47;100150.59;;;1.05
1532;BMP280;759;53.170;8.210;2022-11-20T04:37:12;100140.81;;;1.06
1532;BMP280;759;53.170;8.210;2022-11-20T04:39:37;100143.56;;;1.09
1532;BMP280;759;53.170;8.210;2022-11-20T04:42:02;100147.28;;;1.08
1532;BMP280;759;53.170;8.210;2022-11-20T04:44:46;100143.78;;;1.16
1532;BMP280;759;53.170;8.210;2022-11-20T04:47:11;100150.59;;;1.17
1532;BMP280;759;53.170;8.210;2022-11-20T04:49:36;100147.09;;;1.13
1532;BMP280;759;53.170;8.210;2022-11-20T04:52:02;100140.72;;;1.14
1532;BMP280;759;53.170;8.210;2022-11-20T04:54:27;100138.75;;;1.11
1532;BMP280;759;53.170;8.210;2022-11-20T04:56:52;100130.84;;;1.11
1532;BMP280;759;53.170;8.210;2022-11-20T04:59:17;100130.63;;;1.16
1532;BMP280;759;53.170;8.210;2022-11-20T05:01:42;100132.72;;;1.11
1532;BMP280;759;53.170;8.210;2022-11-20T05:04:08;100131.38;;;1.05
1532;BMP280;759;53.170;8.210;2022-11-20T05:06:33;100137.88;;;1.07
1532;BMP280;759;53.170;8.210;2022-11-20T05:08:58;100135.66;;;1.09
1532;BMP280;759;53.170;8.210;2022-11-20T05:11:23;100138.75;;;1.11
1532;BMP280;759;53.170;8.210;2022-11-20T05:13:49;100139.41;;;1.08
1532;BMP280;759;53.170;8.210;2022-11-20T05:16:16;100134.81;;;1.05
1532;BMP280;759;53.170;8.210;2022-11-20T05:18:42;100135.53;;;1.18
1532;BMP280;759;53.170;8.210;2022-11-20T05:21:07;100138.75;;;1.11
1532;BMP280;759;53.170;8.210;2022-11-20T05:23:33;100128.41;;;1.06
1532;BMP280;759;53.170;8.210;2022-11-20T05:25:59;100127.88;;;1.13
1532;BMP280;759;53.170;8.210;2022-11-20T05:28:25;100133.59;;;1.15
1532;BMP280;759;53.170;8.210;2022-11-20T05:30:50;100122.94;;;1.11
1532;BMP280;759;53.170;8.210;2022-11-20T05:33:15;100120.50;;;1.06
1532;BMP280;759;53.170;8.210;2022-11-20T05:35:41;100118.78;;;0.98
1532;BMP280;759;53.170;8.210;2022-11-20T05:38:06;100112.44;;;0.99
1532;BMP280;759;53.170;8.210;2022-11-20T05:40:31;100113.94;;;1.00
1532;BMP280;759;53.170;8.210;2022-11-20T05:42:56;100115.50;;;1.01
1532;BMP280;759;53.170;8.210;2022-11-20T05:45:22;100106.69;;;0.97
1532;BMP280;759;53.170;8.210;2022-11-20T05:47:47;100105.81;;;1.05
1532;BMP280;759;53.170;8.210;2022-11-20T05:50:13;100100.13;;;1.03
1532;BMP280;759;53.170;8.210;2022-11-20T05:52:38;100095.50;;;1.00
1532;BMP280;759;53.170;8.210;2022-11-20T05:55:03;100098.47;;;0.98
1532;BMP280;759;53.170;8.210;2022-11-20T05:57:28;100093.88;;;0.95
1532;BMP280;759;53.170;8.210;2022-11-20T05:59:53;100084.09;;;0.96
1532;BMP280;759;53.170;8.210;2022-11-20T06:02:19;100077.84;;;0.88
1532;BMP280;759;53.170;8.210;2022-11-20T06:04:44;100092.44;;;0.98
1532;BMP280;759;53.170;8.210;2022-11-20T06:07:09;100089.25;;;0.92
1532;BMP280;759;53.170;8.210;2022-11-20T06:09:35;100090.03;;;0.93
1532;BMP280;759;53.170;8.210;2022-11-20T06:12:00;100094.63;;;0.96
1532;BMP280;759;53.170;8.210;2022-11-20T06:14:25;100083.00;;;0.85
1532;BMP280;759;53.170;8.210;2022-11-20T06:16:50;100074.22;;;0.93
1532;BMP280;759;53.170;8.210;2022-11-20T06:19:15;100087.06;;;0.94
1532;BMP280;759;53.170;8.210;2022-11-20T06:21:41;100087.41;;;0.81
1532;BMP280;759;53.170;8.210;2022-11-20T06:24:06;100079.72;;;0.75
1532;BMP280;759;53.170;8.210;2022-11-20T06:26:31;100084.09;;;0.84
1532;BMP280;759;53.170;8.210;2022-11-20T06:28:56;100082.78;;;0.77
1532;BMP280;759;53.170;8.210;2022-11-20T06:31:22;100076.44;;;0.78
1532;BMP280;759;53.170;8.210;2022-11-20T06:33:48;100080.41;;;0.72
1532;BMP280;759;53.170;8.210;2022-11-20T06:36:14;100081.91;;;0.73
1532;BMP280;759;53.170;8.210;2022-11-20T06:38:40;100077.84;;;0.76
1532;BMP280;759;53.170;8.210;2022-11-20T06:41:06;100085.09;;;0.79
1532;BMP280;759;53.170;8.210;2022-11-20T06:43:31;100083.66;;;0.82
1532;BMP280;759;53.170;8.210;2022-11-20T06:45:57;100088.72;;;0.87
1532;BMP280;759;53.170;8.210;2022-11-20T06:48:22;100085.22;;;0.83
1532;BMP280;759;53.170;8.210;2022-11-20T06:50:48;100093.44;;;0.81
1532;BMP280;759;53.170;8.210;2022-11-20T06:53:13;100087.28;;;0.89
1532;BMP280;759;53.170;8.210;2022-11-20T06:55:41;100095.28;;;0.93
1532;BMP280;759;53.170;8.210;2022-11-20T06:58:07;100095.59;;;0.91
1532;BMP280;759;53.170;8.210;2022-11-20T07:00:32;100092.22;;;0.91
1532;BMP280;759;53.170;8.210;2022-11-20T07:02:57;100095.75;;;0.83
1532;BMP280;759;53.170;8.210;2022-11-20T07:05:22;100087.53;;;0.84
1532;BMP280;759;53.170;8.210;2022-11-20T07:07:47;100091.34;;;0.87
1532;BMP280;759;53.170;8.210;2022-11-20T07:10:13;100080.59;;;0.79
1532;BMP280;759;53.170;8.210;2022-11-20T07:12:38;100079.06;;;0.78
1532;BMP280;759;53.170;8.210;2022-11-20T07:15:03;100094.88;;;0.78
1532;BMP280;759;53.170;8.210;2022-11-20T07:17:28;100091.22;;;0.83
1532;BMP280;759;53.170;8.210;2022-11-20T07:19:54;100093.97;;;0.87
1532;BMP280;759;53.170;8.210;2022-11-20T07:22:19;100092.91;;;0.88
1532;BMP280;759;53.170;8.210;2022-11-20T07:24:46;100096.63;;;0.87
1532;BMP280;759;53.170;8.210;2022-11-20T07:27:11;100095.38;;;0.96
1532;BMP280;759;53.170;8.210;2022-11-20T07:29:36;100090.56;;;0.74
1532;BMP280;759;53.170;8.210;2022-11-20T07:32:02;100093.09;;;0.83
1532;BMP280;759;53.170;8.210;2022-11-20T07:34:28;100095.75;;;0.83
1532;BMP280;759;53.170;8.210;2022-11-20T07:36:54;100096.81;;;0.82
1532;BMP280;759;53.170;8.210;2022-11-20T07:39:19;100091.81;;;0.76
1532;BMP280;759;53.170;8.210;2022-11-20T07:41:44;100094.19;;;0.82
1532;BMP280;759;53.170;8.210;2022-11-20T07:44:09;100092.00;;;0.84
1532;BMP280;759;53.170;8.210;2022-11-20T07:46:34;100089.16;;;0.89
1532;BMP280;759;53.170;8.210;2022-11-20T07:49:00;100092.47;;;0.86
1532;BMP280;759;53.170;8.210;2022-11-20T07:51:25;100098.16;;;0.88
1532;BMP280;759;53.170;8.210;2022-11-20T07:53:53;100099.03;;;0.92
1532;BMP280;759;53.170;8.210;2022-11-20T07:56:18;100103.88;;;0.90
1532;BMP280;759;53.170;8.210;2022-11-20T07:58:44;100099.47;;;0.82
1532;BMP280;759;53.170;8.210;2022-11-20T08:01:09;100099.69;;;0.76
1532;BMP280;759;53.170;8.210;2022-11-20T08:03:34;100103.44;;;0.88
1532;BMP280;759;53.170;8.210;2022-11-20T08:06:02;100105.63;;;0.86
1532;BMP280;759;53.170;8.210;2022-11-20T08:08:27;100100.56;;;0.93
1532;BMP280;759;53.170;8.210;2022-11-20T08:10:53;100094.59;;;1.08
1532;BMP280;759;53.170;8.210;2022-11-20T08:13:38;100092.44;;;0.98
1532;BMP280;759;53.170;8.210;2022-11-20T08:16:22;100092.00;;;0.96
1532;BMP280;759;53.170;8.210;2022-11-20T08:18:47;100089.38;;;0.96
1532;BMP280;759;53.170;8.210;2022-11-20T08:21:13;100092.97;;;0.91
1532;BMP280;759;53.170;8.210;2022-11-20T08:23:38;100101.09;;;0.98
1532;BMP280;759;53.170;8.210;2022-11-20T08:26:03;100094.19;;;0.94
1532;BMP280;759;53.170;8.210;2022-11-20T08:28:28;100099.47;;;0.94
1532;BMP280;759;53.170;8.210;2022-11-20T08:30:58;100100.22;;;1.07
1532;BMP280;759;53.170;8.210;2022-11-20T08:33:24;100096.69;;;1.15
1532;BMP280;759;53.170;8.210;2022-11-20T08:35:49;100105.13;;;1.21
1532;BMP280;759;53.170;8.210;2022-11-20T08:38:14;100104.91;;;1.26
1532;BMP280;759;53.170;8.210;2022-11-20T08:40:39;100098.53;;;1.27
1532;BMP280;759;53.170;8.210;2022-11-20T08:43:04;100097.78;;;1.26
1532;BMP280;759;53.170;8.210;2022-11-20T08:45:29;100103.47;;;1.28
1532;BMP280;759;53.170;8.210;2022-11-20T08:47:59;100099.41;;;1.31
1532;BMP280;759;53.170;8.210;2022-11-20T08:50:24;100107.41;;;1.34
1532;BMP280;759;53.170;8.210;2022-11-20T08:52:49;100097.97;;;1.33
1532;BMP280;759;53.170;8.210;2022-11-20T08:55:14;100103.91;;;1.30
1532;BMP280;759;53.170;8.210;2022-11-20T08:57:40;100104.19;;;1.41
1532;BMP280;759;53.170;8.210;2022-11-20T09:00:05;100103.28;;;1.37
1532;BMP280;759;53.170;8.210;2022-11-20T09:02:31;100102.47;;;1.33
1532;BMP280;759;53.170;8.210;2022-11-20T09:04:57;100097.38;;;1.40
1532;BMP280;759;53.170;8.210;2022-11-20T09:07:22;100099.03;;;1.45
1532;BMP280;759;53.170;8.210;2022-11-20T09:09:47;100093.66;;;1.41
1532;BMP280;759;53.170;8.210;2022-11-20T09:12:12;100098.00;;;1.49
1532;BMP280;759;53.170;8.210;2022-11-20T09:14:38;100096.81;;;1.47
1532;BMP280;759;53.170;8.210;2022-11-20T09:17:03;100097.28;;;1.65
1532;BMP280;759;53.170;8.210;2022-11-20T09:19:28;100106.69;;;1.78
1532;BMP280;759;53.170;8.210;2022-11-20T09:21:54;100108.56;;;1.93
1532;BMP280;759;53.170;8.210;2022-11-20T09:24:19;100106.38;;;1.95
1532;BMP280;759;53.170;8.210;2022-11-20T09:26:45;100107.22;;;2.00
1532;BMP280;759;53.170;8.210;2022-11-20T09:29:10;100102.28;;;1.82
1532;BMP280;759;53.170;8.210;2022-11-20T09:31:36;100111.31;;;1.81
1532;BMP280;759;53.170;8.210;2022-11-20T09:34:01;100118.97;;;1.86
1532;BMP280;759;53.170;8.210;2022-11-20T09:36:26;100113.50;;;1.79
1532;BMP280;759;53.170;8.210;2022-11-20T09:38:51;100115.09;;;1.68
1532;BMP280;759;53.170;8.210;2022-11-20T09:46:20;100112.97;;;1.73
1532;BMP280;759;53.170;8.210;2022-11-20T09:49:02;100109.81;;;1.68
1532;BMP280;759;53.170;8.210;2022-11-20T09:54:19;100112.97;;;1.73
1532;BMP280;759;53.170;8.210;2022-11-20T09:56:50;100103.63;;;1.76
1532;BMP280;759;53.170;8.210;2022-11-20T10:04:49;100099.44;;;1.75
1532;BMP280;759;53.170;8.210;2022-11-20T10:07:18;100105.44;;;1.88
1532;BMP280;759;53.170;8.210;2022-11-20T10:09:50;100096.66;;;1.84
1532;BMP280;759;53.170;8.210;2022-11-20T10:12:25;100091.78;;;1.70
1532;BMP280;759;53.170;8.210;2022-11-20T10:14:55;100095.94;;;1.71
1532;BMP280;759;53.170;8.210;2022-11-20T10:20:09;100098.44;;;1.80
1532;BMP280;759;53.170;8.210;2022-11-20T10:22:40;100093.38;;;1.87
1532;BMP280;759;53.170;8.210;2022-11-20T10:25:14;100090.44;;;1.92
1532;BMP280;759;53.170;8.210;2022-11-20T10:30:16;100086.81;;;2.12
1532;BMP280;759;53.170;8.210;2022-11-20T10:32:50;100085.63;;;2.10
1532;BMP280;759;53.170;8.210;2022-11-20T10:35:22;100073.72;;;2.16
1532;BMP280;759;53.170;8.210;2022-11-20T10:37:50;100074.75;;;2.27
1532;BMP280;759;53.170;8.210;2022-11-20T10:42:55;100085.28;;;2.27
1532;BMP280;759;53.170;8.210;2022-11-20T10:47:46;100078.56;;;2.30
1532;BMP280;759;53.170;8.210;2022-11-20T10:50:13;100080.16;;;2.34
1532;BMP280;759;53.170;8.210;2022-11-20T10:55:07;100082.00;;;2.30
1532;BMP280;759;53.170;8.210;2022-11-20T11:00:10;100083.97;;;2.53
1532;BMP280;759;53.170;8.210;2022-11-20T11:05:12;100071.97;;;2.55
1532;BMP280;759;53.170;8.210;2022-11-20T11:07:41;100076.66;;;2.62
1532;BMP280;759;53.170;8.210;2022-11-20T11:12:58;100070.94;;;2.60
1532;BMP280;759;53.170;8.210;2022-11-20T11:15:28;100063.28;;;2.55
1532;BMP280;759;53.170;8.210;2022-11-20T11:17:53;100062.59;;;2.58
1532;BMP280;759;53.170;8.210;2022-11-20T11:20:22;100054.63;;;2.74
1532;BMP280;759;53.170;8.210;2022-11-20T11:22:50;100060.97;;;2.89
1532;BMP280;759;53.170;8.210;2022-11-20T11:25:19;100057.50;;;3.04
1532;BMP280;759;53.170;8.210;2022-11-20T11:27:48;100057.22;;;3.09
1532;BMP280;759;53.170;8.210;2022-11-20T11:30:14;100048.75;;;3.20
1532;BMP280;759;53.170;8.210;2022-11-20T11:32:40;100060.31;;;2.92
1532;BMP280;759;53.170;8.210;2022-11-20T11:35:06;100055.03;;;2.92
1532;BMP280;759;53.170;8.210;2022-11-20T11:37:32;100057.41;;;2.97
1532;BMP280;759;53.170;8.210;2022-11-20T11:39:58;100048.47;;;2.86
1532;BMP280;759;53.170;8.210;2022-11-20T11:42:24;100044.28;;;2.85
1532;BMP280;759;53.170;8.210;2022-11-20T11:44:49;100048.91;;;2.88
1532;BMP280;759;53.170;8.210;2022-11-20T11:52:45;100038.84;;;2.77
1532;BMP280;759;53.170;8.210;2022-11-20T11:57:51;100027.53;;;2.77
1532;BMP280;759;53.170;8.210;2022-11-20T12:00:19;100028.91;;;2.71
1532;BMP280;759;53.170;8.210;2022-11-20T12:05:21;100032.03;;;2.76
1532;BMP280;759;53.170;8.210;2022-11-20T12:08:05;100025.50;;;2.70
1532;BMP280;759;53.170;8.210;2022-11-20T12:10:38;100017.91;;;2.69
1532;BMP280;759;53.170;8.210;2022-11-20T12:13:08;100005.34;;;2.62
1532;BMP280;759;53.170;8.210;2022-11-20T12:15:37;100007.00;;;2.70
1532;BMP280;759;53.170;8.210;2022-11-20T12:18:11;99996.59;;;2.77
1532;BMP280;759;53.170;8.210;2022-11-20T12:20:41;100001.47;;;2.95
1532;BMP280;759;53.170;8.210;2022-11-20T12:23:16;99997.84;;;3.03
1532;BMP280;759;53.170;8.210;2022-11-20T12:25:43;100006.78;;;2.98
1532;BMP280;759;53.170;8.210;2022-11-20T12:33:47;99991.72;;;2.99
1532;BMP280;759;53.170;8.210;2022-11-20T12:36:20;99982.97;;;2.95
1532;BMP280;759;53.170;8.210;2022-11-20T12:47:12;99980.28;;;2.91
1532;BMP280;759;53.170;8.210;2022-11-20T12:49:41;99979.22;;;2.76
1532;BMP280;759;53.170;8.210;2022-11-20T13:05:21;99965.09;;;2.69
1532;BMP280;759;53.170;8.210;2022-11-20T13:07:50;99965.59;;;2.74
1532;BMP280;759;53.170;8.210;2022-11-20T13:10:21;99966.69;;;2.93
1532;BMP280;759;53.170;8.210;2022-11-20T13:12:56;99971.56;;;3.10
1532;BMP280;759;53.170;8.210;2022-11-20T13:15:31;99976.97;;;2.98
1532;BMP280;759;53.170;8.210;2022-11-20T13:17:59;99977.94;;;3.09
1532;BMP280;759;53.170;8.210;2022-11-20T13:20:25;99971.22;;;3.35
1532;BMP280;759;53.170;8.210;2022-11-20T13:22:54;99980.63;;;3.55
1532;BMP280;759;53.170;8.210;2022-11-20T13:25:30;99985.97;;;3.59
1532;BMP280;759;53.170;8.210;2022-11-20T13:27:56;99974.09;;;3.72
1532;BMP280;759;53.170;8.210;2022-11-20T13:30:28;99983.22;;;4.02
1532;BMP280;759;53.170;8.210;2022-11-20T13:33:05;99979.09;;;4.04
1532;BMP280;759;53.170;8.210;2022-11-20T13:38:14;99974.50;;;4.28
1532;BMP280;759;53.170;8.210;2022-11-20T13:40:59;99980.78;;;4.16
1532;BMP280;759;53.170;8.210;2022-11-20T13:43:44;99968.69;;;4.15
1532;BMP280;759;53.170;8.210;2022-11-20T13:46:11;99968.97;;;4.10
1532;BMP280;759;53.170;8.210;2022-11-20T13:48:40;99972.16;;;3.92
1532;BMP280;759;53.170;8.210;2022-11-20T14:01:23;99960.84;;;3.46
1532;BMP280;759;53.170;8.210;2022-11-20T14:03:50;99947.66;;;3.49
1532;BMP280;759;53.170;8.210;2022-11-20T14:07:01;99939.19;;;3.40
1532;BMP280;759;53.170;8.210;2022-11-20T14:09:01;99929.38;;;3.41
1532;BMP280;759;53.170;8.210;2022-11-20T14:11:28;99931.13;;;3.33
1532;BMP280;759;53.170;8.210;2022-11-20T14:16:37;99924.53;;;3.00
1532;BMP280;759;53.170;8.210;2022-11-20T14:21:46;99921.66;;;2.86
1532;BMP280;759;53.170;8.210;2022-11-20T14:24:12;99919.91;;;2.74
1532;BMP280;759;53.170;8.210;2022-11-20T14:26:38;99919.97;;;2.77
1532;BMP280;759;53.170;8.210;2022-11-20T14:29:11;99914.19;;;2.72
1532;BMP280;759;53.170;8.210;2022-11-20T14:31:36;99911.25;;;2.54
1532;BMP280;759;53.170;8.210;2022-11-20T14:34:02;99902.19;;;2.55
1532;BMP280;759;53.170;8.210;2022-11-20T14:36:27;99902.34;;;2.43
1532;BMP280;759;53.170;8.210;2022-11-20T14:38:52;99904.09;;;2.54
1532;BMP280;759;53.170;8.210;2022-11-20T14:43:53;99890.22;;;2.42
1532;BMP280;759;53.170;8.210;2022-11-20T14:46:19;99892.44;;;2.40
1532;BMP280;759;53.170;8.210;2022-11-20T14:48:54;99894.13;;;2.28
1532;BMP280;759;53.170;8.210;2022-11-20T14:51:30;99891.44;;;2.25
1532;BMP280;759;53.170;8.210;2022-11-20T14:53:56;99893.72;;;2.26
1532;BMP280;759;53.170;8.210;2022-11-20T14:56:24;99883.16;;;2.26
1532;BMP280;759;53.170;8.210;2022-11-20T14:58:56;99887.75;;;2.29
1532;BMP280;759;53.170;8.210;2022-11-20T15:01:25;99881.78;;;2.32
1532;BMP280;759;53.170;8.210;2022-11-20T15:03:56;99865.22;;;2.35
1532;BMP280;759;53.170;8.210;2022-11-20T15:06:25;99856.84;;;2.30
1532;BMP280;759;53.170;8.210;2022-11-20T15:08:51;99856.09;;;2.29
1532;BMP280;759;53.170;8.210;2022-11-20T15:11:22;99856.75;;;2.26
1532;BMP280;759;53.170;8.210;2022-11-20T15:13:48;99851.78;;;2.05
1532;BMP280;759;53.170;8.210;2022-11-20T15:16:21;99847.16;;;1.98
1532;BMP280;759;53.170;8.210;2022-11-20T15:18:46;99842.34;;;1.85
1532;BMP280;759;53.170;8.210;2022-11-20T15:21:13;99839.28;;;1.83
1532;BMP280;759;53.170;8.210;2022-11-20T15:23:39;99842.13;;;1.74
1532;BMP280;759;53.170;8.210;2022-11-20T15:26:04;99840.16;;;1.71
1532;BMP280;759;53.170;8.210;2022-11-20T15:28:31;99844.25;;;1.68
1532;BMP280;759;53.170;8.210;2022-11-20T15:30:56;99835.59;;;1.68
1532;BMP280;759;53.170;8.210;2022-11-20T15:33:21;99820.53;;;1.52
1532;BMP280;759;53.170;8.210;2022-11-20T15:35:47;99817.31;;;1.43
1532;BMP280;759;53.170;8.210;2022-11-20T15:38:12;99811.25;;;1.43
1532;BMP280;759;53.170;8.210;2022-11-20T15:40:37;99811.19;;;1.39
1532;BMP280;759;53.170;8.210;2022-11-20T15:43:03;99807.16;;;1.26
1532;BMP280;759;53.170;8.210;2022-11-20T15:45:29;99810.03;;;1.21
1532;BMP280;759;53.170;8.210;2022-11-20T15:47:54;99815.13;;;1.13
1532;BMP280;759;53.170;8.210;2022-11-20T15:50:20;99809.44;;;1.11
1532;BMP280;759;53.170;8.210;2022-11-20T15:52:45;99805.09;;;1.03
1532;BMP280;759;53.170;8.210;2022-11-20T15:55:11;99801.16;;;0.97
1532;BMP280;759;53.170;8.210;2022-11-20T15:57:36;99792.31;;;0.89
1532;BMP280;759;53.170;8.210;2022-11-20T16:00:01;99792.56;;;0.84
1532;BMP280;759;53.170;8.210;2022-11-20T16:02:27;99790.94;;;0.79
1532;BMP280;759;53.170;8.210;2022-11-20T16:04:52;99792.47;;;0.81
1532;BMP280;759;53.170;8.210;2022-11-20T16:07:17;99791.63;;;0.76
1532;BMP280;759;53.170;8.210;2022-11-20T16:09:42;99793.22;;;0.65
1532;BMP280;759;53.170;8.210;2022-11-20T16:12:08;99789.03;;;0.64
1532;BMP280;759;53.170;8.210;2022-11-20T16:14:54;99785.03;;;0.54
1532;BMP280;759;53.170;8.210;2022-11-20T16:17:38;99785.47;;;0.56
1532;BMP280;759;53.170;8.210;2022-11-20T16:20:10;99786.66;;;0.59
1532;BMP280;759;53.170;8.210;2022-11-20T16:22:35;99787.81;;;0.46
1532;BMP280;759;53.170;8.210;2022-11-20T16:25:00;99774.16;;;0.40
1532;BMP280;759;53.170;8.210;2022-11-20T16:27:26;99784.75;;;0.44
1532;BMP280;759;53.170;8.210;2022-11-20T16:29:51;99782.19;;;0.31
1532;BMP280;759;53.170;8.210;2022-11-20T16:32:16;99781.50;;;0.34
1532;BMP280;759;53.170;8.210;2022-11-20T16:34:41;99785.09;;;0.42